Green Valley, Illinois
Current Conditions -  °F | °C
As of 8:07 AM on Monday 24 Nov 2014 (Local Time) from KPIA Reporting Station
Light Snow Light Snow  
Wind Chill: 24°   Ceiling: 1100
Heat Index: 34°   Visibility: 1mi
Dew Point: 30°   Wind: 15mph
Humidity: 85%   Direction: 280°W
Pressure: 29.37"   Gusts: 25mph
Location:  40.41°N, 89.64°W
Report Text: KPIA 241407Z 28013G22KT 1SM R13/5000VP6000FT -SN BR BKN011 OVC018 01/M01 A2937 RMK AO2 PK WND 30026/1355 PRESRR P0001 T00111011
Loading
Personal Weather Stations






























Interactive Weather Map New forecast layout! Learn more

10-Day Weather Forecast

Advertisements
Track Severe Weather on mobile